sensor_id;sensor_type;location;lat;lon;timestamp;P1;durP1;ratioP1;P2;durP2;ratioP2
2390;SDS011;22957;50.824;4.360;2024-03-25T00:01:51;5.30;;;1.90;;
2390;SDS011;22957;50.824;4.360;2024-03-25T00:04:17;6.27;;;2.23;;
2390;SDS011;22957;50.824;4.360;2024-03-25T00:06:42;3.87;;;1.80;;
2390;SDS011;22957;50.824;4.360;2024-03-25T00:09:08;4.43;;;1.73;;
2390;SDS011;22957;50.824;4.360;2024-03-25T00:11:39;4.33;;;2.53;;
2390;SDS011;22957;50.824;4.360;2024-03-25T00:14:05;3.33;;;2.00;;
2390;SDS011;22957;50.824;4.360;2024-03-25T00:16:30;8.60;;;2.60;;
2390;SDS011;22957;50.824;4.360;2024-03-25T00:18:56;5.43;;;1.80;;
2390;SDS011;22957;50.824;4.360;2024-03-25T00:21:22;5.40;;;2.57;;
2390;SDS011;22957;50.824;4.360;2024-03-25T00:23:47;6.77;;;2.87;;
2390;SDS011;22957;50.824;4.360;2024-03-25T00:26:13;5.40;;;1.80;;
2390;SDS011;22957;50.824;4.360;2024-03-25T00:28:38;7.40;;;3.50;;
2390;SDS011;22957;50.824;4.360;2024-03-25T00:31:04;7.57;;;2.90;;
2390;SDS011;22957;50.824;4.360;2024-03-25T00:33:30;10.03;;;3.03;;
2390;SDS011;22957;50.824;4.360;2024-03-25T00:35:55;6.03;;;2.00;;
2390;SDS011;22957;50.824;4.360;2024-03-25T00:38:21;7.93;;;2.57;;
2390;SDS011;22957;50.824;4.360;2024-03-25T00:40:46;7.07;;;2.83;;
2390;SDS011;22957;50.824;4.360;2024-03-25T00:43:12;4.00;;;2.40;;
2390;SDS011;22957;50.824;4.360;2024-03-25T00:45:38;3.53;;;2.53;;
2390;SDS011;22957;50.824;4.360;2024-03-25T00:48:03;5.10;;;2.20;;
2390;SDS011;22957;50.824;4.360;2024-03-25T00:50:29;4.23;;;1.87;;
2390;SDS011;22957;50.824;4.360;2024-03-25T00:52:55;5.70;;;2.20;;
2390;SDS011;22957;50.824;4.360;2024-03-25T00:55:21;6.47;;;1.73;;
2390;SDS011;22957;50.824;4.360;2024-03-25T00:57:47;4.50;;;2.30;;
2390;SDS011;22957;50.824;4.360;2024-03-25T01:00:13;7.00;;;2.93;;
2390;SDS011;22957;50.824;4.360;2024-03-25T01:02:40;3.73;;;2.00;;
2390;SDS011;22957;50.824;4.360;2024-03-25T01:05:06;4.80;;;2.43;;
2390;SDS011;22957;50.824;4.360;2024-03-25T01:07:32;5.17;;;2.50;;
2390;SDS011;22957;50.824;4.360;2024-03-25T01:09:58;5.50;;;2.10;;
2390;SDS011;22957;50.824;4.360;2024-03-25T01:12:24;9.90;;;2.03;;
2390;SDS011;22957;50.824;4.360;2024-03-25T01:14:50;4.90;;;2.20;;
2390;SDS011;22957;50.824;4.360;2024-03-25T01:17:16;5.07;;;2.50;;
2390;SDS011;22957;50.824;4.360;2024-03-25T01:19:42;2.60;;;1.50;;
2390;SDS011;22957;50.824;4.360;2024-03-25T01:22:08;8.97;;;2.83;;
2390;SDS011;22957;50.824;4.360;2024-03-25T01:24:34;6.13;;;2.70;;
2390;SDS011;22957;50.824;4.360;2024-03-25T01:26:59;3.87;;;2.20;;
2390;SDS011;22957;50.824;4.360;2024-03-25T01:29:25;17.73;;;3.10;;
2390;SDS011;22957;50.824;4.360;2024-03-25T01:31:51;6.70;;;2.87;;
2390;SDS011;22957;50.824;4.360;2024-03-25T01:34:17;6.37;;;2.53;;
2390;SDS011;22957;50.824;4.360;2024-03-25T01:36:42;4.50;;;2.23;;
2390;SDS011;22957;50.824;4.360;2024-03-25T01:39:08;11.13;;;2.60;;
2390;SDS011;22957;50.824;4.360;2024-03-25T01:41:34;4.67;;;1.90;;
2390;SDS011;22957;50.824;4.360;2024-03-25T01:44:00;7.50;;;3.10;;
2390;SDS011;22957;50.824;4.360;2024-03-25T01:46:27;6.10;;;3.30;;
2390;SDS011;22957;50.824;4.360;2024-03-25T01:48:53;4.33;;;1.93;;
2390;SDS011;22957;50.824;4.360;2024-03-25T01:51:20;8.93;;;2.50;;
2390;SDS011;22957;50.824;4.360;2024-03-25T01:53:47;7.00;;;2.90;;
2390;SDS011;22957;50.824;4.360;2024-03-25T01:56:14;9.07;;;3.03;;
2390;SDS011;22957;50.824;4.360;2024-03-25T01:58:42;9.03;;;3.27;;
2390;SDS011;22957;50.824;4.360;2024-03-25T02:01:07;12.33;;;3.70;;
2390;SDS011;22957;50.824;4.360;2024-03-25T02:03:38;8.33;;;3.20;;
2390;SDS011;22957;50.824;4.360;2024-03-25T02:06:06;10.43;;;2.90;;
2390;SDS011;22957;50.824;4.360;2024-03-25T02:08:34;8.60;;;4.00;;
2390;SDS011;22957;50.824;4.360;2024-03-25T02:11:01;9.90;;;3.30;;
2390;SDS011;22957;50.824;4.360;2024-03-25T02:13:27;11.07;;;3.63;;
2390;SDS011;22957;50.824;4.360;2024-03-25T02:15:53;9.90;;;3.60;;
2390;SDS011;22957;50.824;4.360;2024-03-25T02:18:19;10.13;;;3.53;;
2390;SDS011;22957;50.824;4.360;2024-03-25T02:20:46;21.27;;;4.40;;
2390;SDS011;22957;50.824;4.360;2024-03-25T02:23:12;12.20;;;3.60;;
2390;SDS011;22957;50.824;4.360;2024-03-25T02:25:39;13.00;;;4.90;;
2390;SDS011;22957;50.824;4.360;2024-03-25T02:28:07;15.27;;;4.10;;
2390;SDS011;22957;50.824;4.360;2024-03-25T02:30:33;15.10;;;4.00;;
2390;SDS011;22957;50.824;4.360;2024-03-25T02:32:59;14.80;;;3.80;;
2390;SDS011;22957;50.824;4.360;2024-03-25T02:35:25;18.60;;;3.83;;
2390;SDS011;22957;50.824;4.360;2024-03-25T02:37:52;13.93;;;4.40;;
2390;SDS011;22957;50.824;4.360;2024-03-25T02:40:18;23.03;;;5.63;;
2390;SDS011;22957;50.824;4.360;2024-03-25T02:42:45;18.53;;;4.10;;
2390;SDS011;22957;50.824;4.360;2024-03-25T02:45:11;12.60;;;4.00;;
2390;SDS011;22957;50.824;4.360;2024-03-25T02:47:37;12.17;;;3.87;;
2390;SDS011;22957;50.824;4.360;2024-03-25T02:50:03;14.93;;;4.37;;
2390;SDS011;22957;50.824;4.360;2024-03-25T02:52:29;16.30;;;4.80;;
2390;SDS011;22957;50.824;4.360;2024-03-25T02:54:54;17.13;;;4.63;;
2390;SDS011;22957;50.824;4.360;2024-03-25T02:57:20;19.00;;;5.70;;
2390;SDS011;22957;50.824;4.360;2024-03-25T02:59:46;24.70;;;5.93;;
2390;SDS011;22957;50.824;4.360;2024-03-25T03:02:11;15.27;;;5.80;;
2390;SDS011;22957;50.824;4.360;2024-03-25T03:04:37;12.20;;;4.30;;
2390;SDS011;22957;50.824;4.360;2024-03-25T03:07:03;18.30;;;5.70;;
2390;SDS011;22957;50.824;4.360;2024-03-25T03:09:29;14.43;;;3.70;;
2390;SDS011;22957;50.824;4.360;2024-03-25T03:11:54;20.87;;;5.27;;
2390;SDS011;22957;50.824;4.360;2024-03-25T03:14:20;17.23;;;5.00;;
2390;SDS011;22957;50.824;4.360;2024-03-25T03:16:46;18.10;;;5.00;;
2390;SDS011;22957;50.824;4.360;2024-03-25T03:19:11;19.23;;;6.27;;
2390;SDS011;22957;50.824;4.360;2024-03-25T03:21:37;17.83;;;6.53;;
2390;SDS011;22957;50.824;4.360;2024-03-25T03:24:03;14.63;;;5.60;;
2390;SDS011;22957;50.824;4.360;2024-03-25T03:26:29;22.00;;;4.67;;
2390;SDS011;22957;50.824;4.360;2024-03-25T03:28:55;28.07;;;6.10;;
2390;SDS011;22957;50.824;4.360;2024-03-25T03:31:21;21.63;;;6.80;;
2390;SDS011;22957;50.824;4.360;2024-03-25T03:33:48;20.13;;;7.00;;
2390;SDS011;22957;50.824;4.360;2024-03-25T03:36:15;19.90;;;5.90;;
2390;SDS011;22957;50.824;4.360;2024-03-25T03:38:41;24.47;;;8.30;;
2390;SDS011;22957;50.824;4.360;2024-03-25T03:41:07;24.37;;;8.13;;
2390;SDS011;22957;50.824;4.360;2024-03-25T03:43:33;16.33;;;6.43;;
2390;SDS011;22957;50.824;4.360;2024-03-25T03:45:58;25.27;;;8.90;;
2390;SDS011;22957;50.824;4.360;2024-03-25T03:48:24;12.93;;;6.70;;
2390;SDS011;22957;50.824;4.360;2024-03-25T03:50:49;26.97;;;9.10;;
2390;SDS011;22957;50.824;4.360;2024-03-25T03:53:15;15.43;;;7.07;;
2390;SDS011;22957;50.824;4.360;2024-03-25T03:55:40;21.17;;;9.00;;
2390;SDS011;22957;50.824;4.360;2024-03-25T03:58:06;19.97;;;9.07;;
2390;SDS011;22957;50.824;4.360;2024-03-25T04:00:35;19.10;;;8.00;;
2390;SDS011;22957;50.824;4.360;2024-03-25T04:03:01;18.47;;;8.03;;
2390;SDS011;22957;50.824;4.360;2024-03-25T04:05:28;23.10;;;9.27;;
2390;SDS011;22957;50.824;4.360;2024-03-25T04:07:55;23.90;;;10.67;;
2390;SDS011;22957;50.824;4.360;2024-03-25T04:10:21;26.30;;;9.80;;
2390;SDS011;22957;50.824;4.360;2024-03-25T04:12:48;24.13;;;9.90;;
2390;SDS011;22957;50.824;4.360;2024-03-25T04:15:13;31.30;;;11.10;;
2390;SDS011;22957;50.824;4.360;2024-03-25T04:17:43;31.67;;;11.40;;
2390;SDS011;22957;50.824;4.360;2024-03-25T04:20:10;19.57;;;7.77;;
2390;SDS011;22957;50.824;4.360;2024-03-25T04:22:36;30.33;;;12.17;;
2390;SDS011;22957;50.824;4.360;2024-03-25T04:25:02;36.37;;;11.30;;
2390;SDS011;22957;50.824;4.360;2024-03-25T04:27:28;25.70;;;11.53;;
2390;SDS011;22957;50.824;4.360;2024-03-25T04:29:53;26.03;;;11.10;;
2390;SDS011;22957;50.824;4.360;2024-03-25T04:32:19;35.43;;;10.10;;
2390;SDS011;22957;50.824;4.360;2024-03-25T04:34:44;39.80;;;12.17;;
2390;SDS011;22957;50.824;4.360;2024-03-25T04:37:10;31.93;;;11.07;;
2390;SDS011;22957;50.824;4.360;2024-03-25T04:39:36;29.00;;;11.63;;
2390;SDS011;22957;50.824;4.360;2024-03-25T04:42:02;27.43;;;11.47;;
2390;SDS011;22957;50.824;4.360;2024-03-25T04:44:28;28.50;;;11.70;;
2390;SDS011;22957;50.824;4.360;2024-03-25T04:46:53;22.50;;;10.20;;
2390;SDS011;22957;50.824;4.360;2024-03-25T04:49:19;29.87;;;11.77;;
2390;SDS011;22957;50.824;4.360;2024-03-25T04:51:45;23.73;;;9.90;;
2390;SDS011;22957;50.824;4.360;2024-03-25T04:54:10;22.53;;;9.13;;
2390;SDS011;22957;50.824;4.360;2024-03-25T04:56:36;32.03;;;11.47;;
2390;SDS011;22957;50.824;4.360;2024-03-25T04:59:01;24.97;;;8.10;;
2390;SDS011;22957;50.824;4.360;2024-03-25T05:01:27;22.63;;;8.93;;
2390;SDS011;22957;50.824;4.360;2024-03-25T05:03:53;23.53;;;8.93;;
2390;SDS011;22957;50.824;4.360;2024-03-25T05:06:19;26.50;;;8.60;;
2390;SDS011;22957;50.824;4.360;2024-03-25T05:08:44;25.00;;;9.87;;
2390;SDS011;22957;50.824;4.360;2024-03-25T05:11:10;23.33;;;8.93;;
2390;SDS011;22957;50.824;4.360;2024-03-25T05:13:36;26.57;;;10.70;;
2390;SDS011;22957;50.824;4.360;2024-03-25T05:16:01;26.77;;;10.90;;
2390;SDS011;22957;50.824;4.360;2024-03-25T05:18:27;30.33;;;11.23;;
2390;SDS011;22957;50.824;4.360;2024-03-25T05:20:52;36.73;;;13.20;;
2390;SDS011;22957;50.824;4.360;2024-03-25T05:23:18;38.13;;;14.47;;
2390;SDS011;22957;50.824;4.360;2024-03-25T05:25:43;36.50;;;13.37;;
2390;SDS011;22957;50.824;4.360;2024-03-25T05:28:09;33.30;;;12.80;;
2390;SDS011;22957;50.824;4.360;2024-03-25T05:30:35;40.20;;;14.63;;
2390;SDS011;22957;50.824;4.360;2024-03-25T05:33:01;32.90;;;12.60;;
2390;SDS011;22957;50.824;4.360;2024-03-25T05:35:26;31.43;;;13.77;;
2390;SDS011;22957;50.824;4.360;2024-03-25T05:37:52;39.10;;;13.93;;
2390;SDS011;22957;50.824;4.360;2024-03-25T05:40:18;25.93;;;10.57;;
2390;SDS011;22957;50.824;4.360;2024-03-25T05:42:47;30.90;;;12.43;;
2390;SDS011;22957;50.824;4.360;2024-03-25T05:45:12;40.90;;;15.67;;
2390;SDS011;22957;50.824;4.360;2024-03-25T05:47:38;32.00;;;14.13;;
2390;SDS011;22957;50.824;4.360;2024-03-25T05:50:03;32.80;;;11.60;;
2390;SDS011;22957;50.824;4.360;2024-03-25T05:52:30;40.47;;;14.80;;
2390;SDS011;22957;50.824;4.360;2024-03-25T05:54:56;48.17;;;14.23;;
2390;SDS011;22957;50.824;4.360;2024-03-25T05:57:22;27.70;;;12.33;;
2390;SDS011;22957;50.824;4.360;2024-03-25T05:59:47;37.03;;;12.57;;
2390;SDS011;22957;50.824;4.360;2024-03-25T06:02:13;32.87;;;12.53;;
2390;SDS011;22957;50.824;4.360;2024-03-25T06:04:39;34.50;;;11.87;;
2390;SDS011;22957;50.824;4.360;2024-03-25T06:07:04;32.57;;;11.50;;
2390;SDS011;22957;50.824;4.360;2024-03-25T06:09:30;34.80;;;13.73;;
2390;SDS011;22957;50.824;4.360;2024-03-25T06:11:55;28.37;;;11.63;;
2390;SDS011;22957;50.824;4.360;2024-03-25T06:14:21;40.87;;;12.80;;
2390;SDS011;22957;50.824;4.360;2024-03-25T06:16:46;32.60;;;12.43;;
2390;SDS011;22957;50.824;4.360;2024-03-25T06:19:12;41.60;;;12.57;;
2390;SDS011;22957;50.824;4.360;2024-03-25T06:21:38;37.20;;;13.70;;
2390;SDS011;22957;50.824;4.360;2024-03-25T06:24:04;27.03;;;12.07;;
2390;SDS011;22957;50.824;4.360;2024-03-25T06:26:30;35.17;;;12.47;;
2390;SDS011;22957;50.824;4.360;2024-03-25T06:28:55;27.67;;;11.40;;
2390;SDS011;22957;50.824;4.360;2024-03-25T06:31:21;26.17;;;12.77;;
2390;SDS011;22957;50.824;4.360;2024-03-25T06:34:06;29.20;;;10.23;;
2390;SDS011;22957;50.824;4.360;2024-03-25T06:36:43;31.70;;;12.17;;
2390;SDS011;22957;50.824;4.360;2024-03-25T06:39:09;25.90;;;10.70;;
2390;SDS011;22957;50.824;4.360;2024-03-25T06:41:36;33.33;;;10.13;;
2390;SDS011;22957;50.824;4.360;2024-03-25T06:44:02;33.13;;;10.73;;
2390;SDS011;22957;50.824;4.360;2024-03-25T06:46:27;22.77;;;9.13;;
2390;SDS011;22957;50.824;4.360;2024-03-25T06:48:53;30.87;;;9.17;;
2390;SDS011;22957;50.824;4.360;2024-03-25T06:51:18;23.03;;;9.97;;
2390;SDS011;22957;50.824;4.360;2024-03-25T06:53:44;25.80;;;9.47;;
2390;SDS011;22957;50.824;4.360;2024-03-25T06:56:10;18.70;;;8.33;;
2390;SDS011;22957;50.824;4.360;2024-03-25T06:58:35;23.47;;;8.63;;
2390;SDS011;22957;50.824;4.360;2024-03-25T07:01:05;25.20;;;8.93;;
2390;SDS011;22957;50.824;4.360;2024-03-25T07:03:32;18.73;;;7.43;;
2390;SDS011;22957;50.824;4.360;2024-03-25T07:05:58;21.77;;;6.80;;
2390;SDS011;22957;50.824;4.360;2024-03-25T07:08:25;18.13;;;7.40;;
2390;SDS011;22957;50.824;4.360;2024-03-25T07:10:55;19.77;;;8.50;;
2390;SDS011;22957;50.824;4.360;2024-03-25T07:13:21;17.73;;;7.20;;
2390;SDS011;22957;50.824;4.360;2024-03-25T07:15:46;23.90;;;8.30;;
2390;SDS011;22957;50.824;4.360;2024-03-25T07:18:12;22.90;;;8.03;;
2390;SDS011;22957;50.824;4.360;2024-03-25T07:20:41;26.27;;;7.10;;
2390;SDS011;22957;50.824;4.360;2024-03-25T07:23:07;20.27;;;7.70;;
2390;SDS011;22957;50.824;4.360;2024-03-25T07:25:33;17.93;;;7.80;;
2390;SDS011;22957;50.824;4.360;2024-03-25T07:27:59;17.33;;;6.80;;
2390;SDS011;22957;50.824;4.360;2024-03-25T07:30:25;23.43;;;7.53;;
2390;SDS011;22957;50.824;4.360;2024-03-25T07:32:53;22.33;;;7.50;;
2390;SDS011;22957;50.824;4.360;2024-03-25T07:35:22;14.67;;;7.10;;
2390;SDS011;22957;50.824;4.360;2024-03-25T07:37:48;18.37;;;6.07;;
2390;SDS011;22957;50.824;4.360;2024-03-25T07:40:19;19.30;;;7.13;;
2390;SDS011;22957;50.824;4.360;2024-03-25T07:42:45;17.47;;;7.37;;
2390;SDS011;22957;50.824;4.360;2024-03-25T07:45:11;20.53;;;5.33;;
2390;SDS011;22957;50.824;4.360;2024-03-25T07:47:36;23.63;;;7.17;;
2390;SDS011;22957;50.824;4.360;2024-03-25T07:50:02;24.20;;;8.50;;
2390;SDS011;22957;50.824;4.360;2024-03-25T07:52:28;21.80;;;6.20;;
2390;SDS011;22957;50.824;4.360;2024-03-25T07:54:55;15.63;;;6.33;;
2390;SDS011;22957;50.824;4.360;2024-03-25T07:57:21;15.27;;;6.30;;
2390;SDS011;22957;50.824;4.360;2024-03-25T07:59:46;22.60;;;6.20;;
2390;SDS011;22957;50.824;4.360;2024-03-25T08:02:12;23.50;;;6.40;;
2390;SDS011;22957;50.824;4.360;2024-03-25T08:04:38;18.50;;;7.30;;
2390;SDS011;22957;50.824;4.360;2024-03-25T08:07:04;31.27;;;9.07;;
2390;SDS011;22957;50.824;4.360;2024-03-25T08:09:29;18.77;;;6.77;;
2390;SDS011;22957;50.824;4.360;2024-03-25T08:11:55;17.30;;;6.43;;
2390;SDS011;22957;50.824;4.360;2024-03-25T08:14:21;20.47;;;5.83;;
2390;SDS011;22957;50.824;4.360;2024-03-25T08:16:47;17.77;;;7.00;;
2390;SDS011;22957;50.824;4.360;2024-03-25T08:19:13;15.63;;;6.13;;
2390;SDS011;22957;50.824;4.360;2024-03-25T08:21:38;21.60;;;7.20;;
2390;SDS011;22957;50.824;4.360;2024-03-25T08:24:04;22.17;;;7.43;;
2390;SDS011;22957;50.824;4.360;2024-03-25T08:26:30;28.60;;;7.37;;
2390;SDS011;22957;50.824;4.360;2024-03-25T08:28:56;6.57;;;4.13;;
2390;SDS011;22957;50.824;4.360;2024-03-25T08:31:22;16.23;;;5.60;;
2390;SDS011;22957;50.824;4.360;2024-03-25T08:33:47;16.80;;;6.20;;
2390;SDS011;22957;50.824;4.360;2024-03-25T08:36:13;16.43;;;6.83;;
2390;SDS011;22957;50.824;4.360;2024-03-25T08:38:39;34.13;;;6.80;;
2390;SDS011;22957;50.824;4.360;2024-03-25T08:41:04;14.40;;;5.70;;
2390;SDS011;22957;50.824;4.360;2024-03-25T08:43:30;14.03;;;5.00;;
2390;SDS011;22957;50.824;4.360;2024-03-25T08:45:55;17.00;;;5.93;;
2390;SDS011;22957;50.824;4.360;2024-03-25T08:48:22;17.57;;;5.80;;
2390;SDS011;22957;50.824;4.360;2024-03-25T08:50:48;14.57;;;6.47;;
2390;SDS011;22957;50.824;4.360;2024-03-25T08:53:14;17.83;;;7.20;;
2390;SDS011;22957;50.824;4.360;2024-03-25T08:55:43;11.70;;;5.47;;
2390;SDS011;22957;50.824;4.360;2024-03-25T08:58:15;13.30;;;4.93;;
2390;SDS011;22957;50.824;4.360;2024-03-25T09:00:44;14.60;;;4.80;;
2390;SDS011;22957;50.824;4.360;2024-03-25T09:03:10;11.37;;;4.87;;
2390;SDS011;22957;50.824;4.360;2024-03-25T09:05:35;11.90;;;5.20;;
2390;SDS011;22957;50.824;4.360;2024-03-25T09:08:04;14.70;;;5.53;;
2390;SDS011;22957;50.824;4.360;2024-03-25T09:10:30;17.63;;;5.60;;
2390;SDS011;22957;50.824;4.360;2024-03-25T09:13:15;15.43;;;5.40;;
2390;SDS011;22957;50.824;4.360;2024-03-25T09:15:40;11.03;;;5.30;;
2390;SDS011;22957;50.824;4.360;2024-03-25T09:18:06;15.27;;;5.63;;
2390;SDS011;22957;50.824;4.360;2024-03-25T09:20:31;12.33;;;5.80;;
2390;SDS011;22957;50.824;4.360;2024-03-25T09:22:57;13.23;;;5.93;;
2390;SDS011;22957;50.824;4.360;2024-03-25T09:25:22;22.00;;;6.10;;
2390;SDS011;22957;50.824;4.360;2024-03-25T09:27:49;18.10;;;5.87;;
2390;SDS011;22957;50.824;4.360;2024-03-25T09:30:15;11.70;;;5.43;;
2390;SDS011;22957;50.824;4.360;2024-03-25T09:32:41;15.27;;;5.37;;
2390;SDS011;22957;50.824;4.360;2024-03-25T09:35:08;9.73;;;5.03;;
2390;SDS011;22957;50.824;4.360;2024-03-25T09:37:36;14.97;;;5.73;;
2390;SDS011;22957;50.824;4.360;2024-03-25T09:40:03;13.10;;;6.67;;
2390;SDS011;22957;50.824;4.360;2024-03-25T09:42:36;11.60;;;5.77;;
2390;SDS011;22957;50.824;4.360;2024-03-25T09:45:15;16.50;;;5.97;;
2390;SDS011;22957;50.824;4.360;2024-03-25T09:47:45;10.60;;;4.50;;
2390;SDS011;22957;50.824;4.360;2024-03-25T09:50:15;11.07;;;5.43;;
2390;SDS011;22957;50.824;4.360;2024-03-25T09:52:47;18.53;;;5.10;;
2390;SDS011;22957;50.824;4.360;2024-03-25T09:55:14;15.37;;;5.60;;
2390;SDS011;22957;50.824;4.360;2024-03-25T09:57:40;10.73;;;4.80;;
2390;SDS011;22957;50.824;4.360;2024-03-25T10:00:07;16.27;;;4.53;;
2390;SDS011;22957;50.824;4.360;2024-03-25T10:02:37;12.13;;;4.30;;
2390;SDS011;22957;50.824;4.360;2024-03-25T10:05:04;19.47;;;5.47;;
2390;SDS011;22957;50.824;4.360;2024-03-25T10:07:30;11.77;;;4.60;;
2390;SDS011;22957;50.824;4.360;2024-03-25T10:09:56;8.00;;;3.83;;
2390;SDS011;22957;50.824;4.360;2024-03-25T10:12:23;10.50;;;4.20;;
2390;SDS011;22957;50.824;4.360;2024-03-25T10:14:49;11.90;;;4.87;;
2390;SDS011;22957;50.824;4.360;2024-03-25T10:17:15;15.33;;;4.47;;
2390;SDS011;22957;50.824;4.360;2024-03-25T10:19:40;9.47;;;3.07;;
2390;SDS011;22957;50.824;4.360;2024-03-25T10:22:07;9.77;;;3.50;;
2390;SDS011;22957;50.824;4.360;2024-03-25T10:24:52;8.83;;;3.40;;
2390;SDS011;22957;50.824;4.360;2024-03-25T10:29:45;8.90;;;3.20;;
2390;SDS011;22957;50.824;4.360;2024-03-25T10:32:22;6.60;;;2.33;;
2390;SDS011;22957;50.824;4.360;2024-03-25T10:34:53;5.03;;;2.30;;
2390;SDS011;22957;50.824;4.360;2024-03-25T10:37:19;13.87;;;3.40;;
2390;SDS011;22957;50.824;4.360;2024-03-25T10:39:47;8.60;;;2.67;;
2390;SDS011;22957;50.824;4.360;2024-03-25T10:42:15;7.67;;;3.10;;
2390;SDS011;22957;50.824;4.360;2024-03-25T10:44:46;5.77;;;2.57;;
2390;SDS011;22957;50.824;4.360;2024-03-25T10:47:16;9.97;;;2.70;;
2390;SDS011;22957;50.824;4.360;2024-03-25T10:49:57;8.93;;;2.70;;
2390;SDS011;22957;50.824;4.360;2024-03-25T10:52:26;5.43;;;2.80;;
2390;SDS011;22957;50.824;4.360;2024-03-25T10:54:54;5.67;;;1.97;;
2390;SDS011;22957;50.824;4.360;2024-03-25T10:57:20;5.83;;;2.60;;
2390;SDS011;22957;50.824;4.360;2024-03-25T10:59:47;8.97;;;2.30;;
2390;SDS011;22957;50.824;4.360;2024-03-25T11:02:14;5.10;;;2.50;;
2390;SDS011;22957;50.824;4.360;2024-03-25T11:04:42;5.40;;;2.33;;
2390;SDS011;22957;50.824;4.360;2024-03-25T11:07:13;9.53;;;1.93;;
2390;SDS011;22957;50.824;4.360;2024-03-25T11:09:39;5.37;;;1.70;;
2390;SDS011;22957;50.824;4.360;2024-03-25T11:12:06;6.17;;;1.80;;
2390;SDS011;22957;50.824;4.360;2024-03-25T11:14:34;11.00;;;2.07;;
2390;SDS011;22957;50.824;4.360;2024-03-25T11:17:00;3.43;;;1.67;;
2390;SDS011;22957;50.824;4.360;2024-03-25T11:19:27;8.37;;;2.00;;
2390;SDS011;22957;50.824;4.360;2024-03-25T11:21:54;5.57;;;2.07;;
2390;SDS011;22957;50.824;4.360;2024-03-25T11:24:27;3.63;;;1.70;;
2390;SDS011;22957;50.824;4.360;2024-03-25T11:26:53;6.90;;;2.13;;
2390;SDS011;22957;50.824;4.360;2024-03-25T11:29:19;6.60;;;2.73;;
2390;SDS011;22957;50.824;4.360;2024-03-25T11:31:45;5.20;;;2.00;;
2390;SDS011;22957;50.824;4.360;2024-03-25T11:34:10;9.63;;;1.90;;
2390;SDS011;22957;50.824;4.360;2024-03-25T11:36:37;7.87;;;2.10;;
2390;SDS011;22957;50.824;4.360;2024-03-25T11:39:03;3.90;;;1.40;;
2390;SDS011;22957;50.824;4.360;2024-03-25T11:41:33;8.23;;;1.73;;
2390;SDS011;22957;50.824;4.360;2024-03-25T11:44:00;5.23;;;1.67;;
2390;SDS011;22957;50.824;4.360;2024-03-25T11:46:26;4.43;;;1.83;;
2390;SDS011;22957;50.824;4.360;2024-03-25T11:48:55;7.03;;;1.80;;
2390;SDS011;22957;50.824;4.360;2024-03-25T11:51:20;6.00;;;1.70;;
2390;SDS011;22957;50.824;4.360;2024-03-25T11:53:46;5.00;;;1.80;;
2390;SDS011;22957;50.824;4.360;2024-03-25T11:56:11;3.70;;;1.70;;
2390;SDS011;22957;50.824;4.360;2024-03-25T11:58:38;4.27;;;1.63;;
2390;SDS011;22957;50.824;4.360;2024-03-25T12:01:04;3.60;;;1.90;;
2390;SDS011;22957;50.824;4.360;2024-03-25T12:03:30;4.43;;;2.00;;
2390;SDS011;22957;50.824;4.360;2024-03-25T12:05:58;5.43;;;2.50;;
2390;SDS011;22957;50.824;4.360;2024-03-25T12:08:23;7.37;;;2.83;;
2390;SDS011;22957;50.824;4.360;2024-03-25T12:10:51;9.13;;;3.50;;
2390;SDS011;22957;50.824;4.360;2024-03-25T12:13:37;6.10;;;2.30;;
2390;SDS011;22957;50.824;4.360;2024-03-25T12:16:07;6.37;;;2.13;;
2390;SDS011;22957;50.824;4.360;2024-03-25T12:18:34;7.10;;;1.67;;
2390;SDS011;22957;50.824;4.360;2024-03-25T12:21:01;5.30;;;2.20;;
2390;SDS011;22957;50.824;4.360;2024-03-25T12:23:32;9.03;;;1.87;;
2390;SDS011;22957;50.824;4.360;2024-03-25T12:25:59;4.47;;;1.57;;
2390;SDS011;22957;50.824;4.360;2024-03-25T12:28:25;8.13;;;1.93;;
2390;SDS011;22957;50.824;4.360;2024-03-25T12:30:51;8.97;;;1.70;;
2390;SDS011;22957;50.824;4.360;2024-03-25T12:33:20;6.43;;;1.37;;
2390;SDS011;22957;50.824;4.360;2024-03-25T12:35:46;5.00;;;1.70;;
2390;SDS011;22957;50.824;4.360;2024-03-25T12:38:28;4.13;;;1.60;;
2390;SDS011;22957;50.824;4.360;2024-03-25T12:41:06;6.63;;;1.83;;
2390;SDS011;22957;50.824;4.360;2024-03-25T12:43:33;6.13;;;2.13;;
2390;SDS011;22957;50.824;4.360;2024-03-25T12:46:00;4.57;;;1.60;;
2390;SDS011;22957;50.824;4.360;2024-03-25T12:48:26;4.60;;;1.60;;
2390;SDS011;22957;50.824;4.360;2024-03-25T12:50:52;4.50;;;1.50;;
2390;SDS011;22957;50.824;4.360;2024-03-25T12:53:19;4.83;;;1.43;;
2390;SDS011;22957;50.824;4.360;2024-03-25T12:55:47;9.80;;;1.20;;
2390;SDS011;22957;50.824;4.360;2024-03-25T12:58:14;11.30;;;1.67;;
2390;SDS011;22957;50.824;4.360;2024-03-25T13:00:39;4.53;;;1.27;;
2390;SDS011;22957;50.824;4.360;2024-03-25T13:03:05;4.40;;;1.37;;
2390;SDS011;22957;50.824;4.360;2024-03-25T13:05:33;5.23;;;1.50;;
2390;SDS011;22957;50.824;4.360;2024-03-25T13:07:59;2.37;;;1.07;;
2390;SDS011;22957;50.824;4.360;2024-03-25T13:10:26;4.43;;;1.30;;
2390;SDS011;22957;50.824;4.360;2024-03-25T13:12:52;5.00;;;1.40;;
2390;SDS011;22957;50.824;4.360;2024-03-25T13:15:17;7.70;;;1.20;;
2390;SDS011;22957;50.824;4.360;2024-03-25T13:17:43;7.07;;;1.20;;
2390;SDS011;22957;50.824;4.360;2024-03-25T13:20:09;3.20;;;1.40;;
2390;SDS011;22957;50.824;4.360;2024-03-25T13:22:34;1.40;;;0.97;;
2390;SDS011;22957;50.824;4.360;2024-03-25T13:25:00;7.13;;;1.37;;
2390;SDS011;22957;50.824;4.360;2024-03-25T13:27:26;4.47;;;1.20;;
2390;SDS011;22957;50.824;4.360;2024-03-25T13:29:51;5.80;;;1.33;;
2390;SDS011;22957;50.824;4.360;2024-03-25T13:32:18;7.27;;;1.03;;
2390;SDS011;22957;50.824;4.360;2024-03-25T13:34:44;4.73;;;1.20;;
2390;SDS011;22957;50.824;4.360;2024-03-25T13:37:10;2.00;;;1.37;;
2390;SDS011;22957;50.824;4.360;2024-03-25T13:39:36;3.87;;;1.47;;
2390;SDS011;22957;50.824;4.360;2024-03-25T13:42:02;7.33;;;1.53;;
2390;SDS011;22957;50.824;4.360;2024-03-25T13:44:27;7.30;;;1.43;;
2390;SDS011;22957;50.824;4.360;2024-03-25T13:46:53;3.37;;;1.20;;
2390;SDS011;22957;50.824;4.360;2024-03-25T13:49:19;7.90;;;1.87;;
2390;SDS011;22957;50.824;4.360;2024-03-25T13:51:45;5.90;;;1.27;;
2390;SDS011;22957;50.824;4.360;2024-03-25T13:54:11;2.73;;;1.20;;
2390;SDS011;22957;50.824;4.360;2024-03-25T13:56:36;4.73;;;1.20;;
2390;SDS011;22957;50.824;4.360;2024-03-25T13:59:02;4.23;;;1.60;;
2390;SDS011;22957;50.824;4.360;2024-03-25T14:01:28;3.50;;;1.17;;
2390;SDS011;22957;50.824;4.360;2024-03-25T14:03:53;4.03;;;1.37;;
2390;SDS011;22957;50.824;4.360;2024-03-25T14:06:19;4.70;;;1.40;;
2390;SDS011;22957;50.824;4.360;2024-03-25T14:08:45;5.90;;;1.30;;
2390;SDS011;22957;50.824;4.360;2024-03-25T14:11:10;6.70;;;1.37;;
2390;SDS011;22957;50.824;4.360;2024-03-25T14:13:36;6.33;;;1.30;;
2390;SDS011;22957;50.824;4.360;2024-03-25T14:16:02;3.33;;;1.07;;
2390;SDS011;22957;50.824;4.360;2024-03-25T14:18:27;2.80;;;1.10;;
2390;SDS011;22957;50.824;4.360;2024-03-25T14:20:53;3.93;;;1.20;;
2390;SDS011;22957;50.824;4.360;2024-03-25T14:23:19;4.33;;;1.30;;
2390;SDS011;22957;50.824;4.360;2024-03-25T14:25:44;9.03;;;1.43;;
2390;SDS011;22957;50.824;4.360;2024-03-25T14:28:10;5.40;;;1.43;;
2390;SDS011;22957;50.824;4.360;2024-03-25T14:30:36;2.50;;;1.20;;
2390;SDS011;22957;50.824;4.360;2024-03-25T14:33:01;6.57;;;1.47;;
2390;SDS011;22957;50.824;4.360;2024-03-25T14:35:27;3.00;;;1.20;;
2390;SDS011;22957;50.824;4.360;2024-03-25T14:37:53;5.20;;;1.40;;
2390;SDS011;22957;50.824;4.360;2024-03-25T14:40:19;1.90;;;1.03;;
2390;SDS011;22957;50.824;4.360;2024-03-25T14:42:44;3.33;;;1.13;;
2390;SDS011;22957;50.824;4.360;2024-03-25T14:45:10;3.43;;;1.10;;
2390;SDS011;22957;50.824;4.360;2024-03-25T14:47:36;6.73;;;1.40;;
2390;SDS011;22957;50.824;4.360;2024-03-25T14:50:01;7.03;;;1.10;;
2390;SDS011;22957;50.824;4.360;2024-03-25T14:52:29;8.53;;;1.33;;